This is the latest recevied weather packets stored in our database for station/object SV2BZQ-2. If no packets are shown the sender has not sent any weather packets the latest 1 day(s).
| Time | Temp. | Humidity | Pressure | Rain* | Wind** | Luminosity | Snow |
|---|---|---|---|---|---|---|---|
| 1836274834 | 15.56° C | 76% | 1024 hPa | 0 mm | 1.34 m/s, 299° | 0 W/m² | - |
| 1836274587 | 15.56° C | 76% | 1024 hPa | 0 mm | 0.89 m/s, 334° | 0 W/m² | - |
| 1836274572 | 15.56° C | 76% | 1024 hPa | 0 mm | 1.34 m/s, 276° | 0 W/m² | - |
| 1836274495 | 15.56° C | 76% | 1024 hPa | 0 mm | 0.89 m/s, 315° | 0 W/m² | - |
| 1836274411 | 15.56° C | 76% | 1024 hPa | 0 mm | 0.89 m/s, 307° | 0 W/m² | - |
| 1836274333 | 15.56° C | 76% | 1024 hPa | 0 mm | 1.34 m/s, 303° | 0 W/m² | - |
| 1836274211 | 15.56° C | 76% | 1024 hPa | 0 mm | 0.89 m/s, 315° | 0 W/m² | - |
| 1836274198 | 15.56° C | 76% | 1023.9 hPa | 0 mm | 1.34 m/s, 298° | 0 W/m² | - |
| 1836273882 | 15.56° C | 76% | 1024.1 hPa | 0 mm | 0.89 m/s, 299° | 0 W/m² | - |
| 1778060591 | 25.56° C | 46% | 1014.1 hPa | 0 mm | 1.79 m/s, 182° | 863 W/m² | - |
| 1778060467 | 25.56° C | 47% | 1014.1 hPa | 0 mm | 1.79 m/s, 148° | 846 W/m² | - |
| 1778060347 | 25.56° C | 47% | 1014.1 hPa | 0 mm | 1.79 m/s, 138° | 854 W/m² | - |
| 1778060239 | 25.56° C | 47% | 1014.1 hPa | 0 mm | 1.79 m/s, 153° | 846 W/m² | - |
| 1778060120 | 25.56° C | 48% | 1014.1 hPa | 0 mm | 1.79 m/s, 179° | 840 W/m² | - |
| 1778060050 | 25.56° C | 47% | 1014.1 hPa | 0 mm | 1.79 m/s, 99° | 846 W/m² | - |
| 1778059955 | 25.56° C | 47% | 1014.2 hPa | 0 mm | 1.79 m/s, 146° | 846 W/m² | - |
| 1778059863 | 25.56° C | 48% | 1014.2 hPa | 0 mm | 1.79 m/s, 149° | 842 W/m² | - |
| 1778059782 | 25.56° C | 48% | 1014.2 hPa | 0 mm | 1.34 m/s, 109° | 837 W/m² | - |
| 1778059676 | 25.56° C | 49% | 1014.2 hPa | 0 mm | 1.34 m/s, 203° | 837 W/m² | - |
| 1778059466 | 25.56° C | 48% | 1014.2 hPa | 0 mm | 1.34 m/s, 183° | 833 W/m² | - |
| 1778059334 | 25.56° C | 49% | 1014.1 hPa | 0 mm | 1.34 m/s, 215° | 826 W/m² | - |
| 1778059122 | 25.56° C | 49% | 1014.1 hPa | 0 mm | 1.79 m/s, 148° | 824 W/m² | - |
| 1778059035 | 25.56° C | 49% | 1014.1 hPa | 0 mm | 1.34 m/s, 128° | 826 W/m² | - |
| 1778058935 | 25.56° C | 50% | 1014.1 hPa | 0 mm | 1.34 m/s, 142° | 821 W/m² | - |
| 1778058846 | 25.56° C | 51% | 1014.1 hPa | 0 mm | 1.34 m/s, 131° | 817 W/m² | - |
* Rain latest hour (hover to see other rain measurements)
** Current wind speed in m/s (hover to see current wind gust speed)